sensor_id;sensor_type;location;lat;lon;timestamp;P1;durP1;ratioP1;P2;durP2;ratioP2
15982;SDS011;14442;50.196;8.096;2023-04-15T00:00:19;0.30;;;0.30;;
15982;SDS011;14442;50.196;8.096;2023-04-15T00:02:46;0.43;;;0.40;;
15982;SDS011;14442;50.196;8.096;2023-04-15T00:05:14;1.30;;;0.20;;
15982;SDS011;14442;50.196;8.096;2023-04-15T00:07:41;0.50;;;0.50;;
15982;SDS011;14442;50.196;8.096;2023-04-15T00:10:08;0.73;;;0.33;;
15982;SDS011;14442;50.196;8.096;2023-04-15T00:12:34;0.50;;;0.30;;
15982;SDS011;14442;50.196;8.096;2023-04-15T00:15:01;0.27;;;0.27;;
15982;SDS011;14442;50.196;8.096;2023-04-15T00:17:28;0.63;;;0.57;;
15982;SDS011;14442;50.196;8.096;2023-04-15T00:19:55;0.50;;;0.20;;
15982;SDS011;14442;50.196;8.096;2023-04-15T00:22:25;0.67;;;0.30;;
15982;SDS011;14442;50.196;8.096;2023-04-15T00:24:52;0.30;;;0.30;;
15982;SDS011;14442;50.196;8.096;2023-04-15T00:27:19;0.40;;;0.40;;
15982;SDS011;14442;50.196;8.096;2023-04-15T00:29:46;0.30;;;0.30;;
15982;SDS011;14442;50.196;8.096;2023-04-15T00:32:12;0.40;;;0.40;;
15982;SDS011;14442;50.196;8.096;2023-04-15T00:34:39;0.30;;;0.30;;
15982;SDS011;14442;50.196;8.096;2023-04-15T00:37:06;0.77;;;0.33;;
15982;SDS011;14442;50.196;8.096;2023-04-15T00:39:35;0.47;;;0.33;;
15982;SDS011;14442;50.196;8.096;2023-04-15T00:42:02;0.40;;;0.30;;
15982;SDS011;14442;50.196;8.096;2023-04-15T00:44:29;0.40;;;0.40;;
15982;SDS011;14442;50.196;8.096;2023-04-15T00:46:57;0.40;;;0.40;;
15982;SDS011;14442;50.196;8.096;2023-04-15T00:49:25;0.27;;;0.27;;
15982;SDS011;14442;50.196;8.096;2023-04-15T00:51:52;0.30;;;0.30;;
15982;SDS011;14442;50.196;8.096;2023-04-15T00:54:19;0.10;;;0.10;;
15982;SDS011;14442;50.196;8.096;2023-04-15T00:56:47;0.30;;;0.30;;
15982;SDS011;14442;50.196;8.096;2023-04-15T00:59:14;0.50;;;0.20;;
15982;SDS011;14442;50.196;8.096;2023-04-15T01:01:43;0.97;;;0.30;;
15982;SDS011;14442;50.196;8.096;2023-04-15T01:04:11;0.23;;;0.23;;
15982;SDS011;14442;50.196;8.096;2023-04-15T01:06:37;0.50;;;0.30;;
15982;SDS011;14442;50.196;8.096;2023-04-15T01:09:04;0.30;;;0.30;;
15982;SDS011;14442;50.196;8.096;2023-04-15T01:11:31;0.20;;;0.20;;
15982;SDS011;14442;50.196;8.096;2023-04-15T01:13:59;0.30;;;0.30;;
15982;SDS011;14442;50.196;8.096;2023-04-15T01:16:27;0.30;;;0.30;;
15982;SDS011;14442;50.196;8.096;2023-04-15T01:18:53;0.30;;;0.30;;
15982;SDS011;14442;50.196;8.096;2023-04-15T01:21:20;0.37;;;0.30;;
15982;SDS011;14442;50.196;8.096;2023-04-15T01:23:48;0.60;;;0.20;;
15982;SDS011;14442;50.196;8.096;2023-04-15T01:26:18;0.30;;;0.30;;
15982;SDS011;14442;50.196;8.096;2023-04-15T01:28:46;0.40;;;0.37;;
15982;SDS011;14442;50.196;8.096;2023-04-15T01:31:13;0.27;;;0.27;;
15982;SDS011;14442;50.196;8.096;2023-04-15T01:33:40;0.20;;;0.20;;
15982;SDS011;14442;50.196;8.096;2023-04-15T01:36:08;0.40;;;0.40;;
15982;SDS011;14442;50.196;8.096;2023-04-15T01:38:35;0.20;;;0.20;;
15982;SDS011;14442;50.196;8.096;2023-04-15T01:41:02;0.30;;;0.30;;
15982;SDS011;14442;50.196;8.096;2023-04-15T01:43:32;0.33;;;0.30;;
15982;SDS011;14442;50.196;8.096;2023-04-15T01:46:00;0.27;;;0.20;;
15982;SDS011;14442;50.196;8.096;2023-04-15T01:48:26;0.30;;;0.30;;
15982;SDS011;14442;50.196;8.096;2023-04-15T01:50:53;0.63;;;0.47;;
15982;SDS011;14442;50.196;8.096;2023-04-15T01:53:21;0.40;;;0.40;;
15982;SDS011;14442;50.196;8.096;2023-04-15T01:55:48;1.50;;;0.30;;
15982;SDS011;14442;50.196;8.096;2023-04-15T01:58:15;1.37;;;0.40;;
15982;SDS011;14442;50.196;8.096;2023-04-15T02:00:43;0.30;;;0.30;;
15982;SDS011;14442;50.196;8.096;2023-04-15T02:03:10;0.33;;;0.30;;
15982;SDS011;14442;50.196;8.096;2023-04-15T02:05:36;0.20;;;0.20;;
15982;SDS011;14442;50.196;8.096;2023-04-15T02:08:03;0.20;;;0.20;;
15982;SDS011;14442;50.196;8.096;2023-04-15T02:10:30;0.20;;;0.20;;
15982;SDS011;14442;50.196;8.096;2023-04-15T02:12:56;0.60;;;0.40;;
15982;SDS011;14442;50.196;8.096;2023-04-15T02:15:23;0.20;;;0.20;;
15982;SDS011;14442;50.196;8.096;2023-04-15T02:17:51;0.97;;;0.20;;
15982;SDS011;14442;50.196;8.096;2023-04-15T02:20:19;0.23;;;0.20;;
15982;SDS011;14442;50.196;8.096;2023-04-15T02:22:46;0.40;;;0.40;;
15982;SDS011;14442;50.196;8.096;2023-04-15T02:25:13;0.30;;;0.30;;
15982;SDS011;14442;50.196;8.096;2023-04-15T02:27:41;0.20;;;0.20;;
15982;SDS011;14442;50.196;8.096;2023-04-15T02:30:08;0.20;;;0.20;;
15982;SDS011;14442;50.196;8.096;2023-04-15T02:32:35;0.30;;;0.30;;
15982;SDS011;14442;50.196;8.096;2023-04-15T02:35:04;0.20;;;0.20;;
15982;SDS011;14442;50.196;8.096;2023-04-15T02:37:32;0.40;;;0.30;;
15982;SDS011;14442;50.196;8.096;2023-04-15T02:40:05;0.20;;;0.20;;
15982;SDS011;14442;50.196;8.096;2023-04-15T02:42:32;0.40;;;0.30;;
15982;SDS011;14442;50.196;8.096;2023-04-15T02:44:59;0.40;;;0.20;;
15982;SDS011;14442;50.196;8.096;2023-04-15T02:47:26;0.20;;;0.20;;
15982;SDS011;14442;50.196;8.096;2023-04-15T02:49:52;0.23;;;0.23;;
15982;SDS011;14442;50.196;8.096;2023-04-15T02:52:20;0.30;;;0.30;;
15982;SDS011;14442;50.196;8.096;2023-04-15T02:54:48;0.50;;;0.40;;
15982;SDS011;14442;50.196;8.096;2023-04-15T02:57:15;0.53;;;0.30;;
15982;SDS011;14442;50.196;8.096;2023-04-15T02:59:41;0.20;;;0.20;;
15982;SDS011;14442;50.196;8.096;2023-04-15T03:02:08;0.73;;;0.30;;
15982;SDS011;14442;50.196;8.096;2023-04-15T03:04:35;1.80;;;0.40;;
15982;SDS011;14442;50.196;8.096;2023-04-15T03:07:01;0.20;;;0.20;;
15982;SDS011;14442;50.196;8.096;2023-04-15T03:09:29;0.80;;;0.20;;
15982;SDS011;14442;50.196;8.096;2023-04-15T03:11:57;0.57;;;0.37;;
15982;SDS011;14442;50.196;8.096;2023-04-15T03:14:23;0.30;;;0.30;;
15982;SDS011;14442;50.196;8.096;2023-04-15T03:16:51;0.30;;;0.30;;
15982;SDS011;14442;50.196;8.096;2023-04-15T03:19:17;0.20;;;0.20;;
15982;SDS011;14442;50.196;8.096;2023-04-15T03:21:44;0.47;;;0.30;;
15982;SDS011;14442;50.196;8.096;2023-04-15T03:24:11;1.70;;;0.30;;
15982;SDS011;14442;50.196;8.096;2023-04-15T03:26:39;1.77;;;0.43;;
15982;SDS011;14442;50.196;8.096;2023-04-15T03:29:05;0.60;;;0.30;;
15982;SDS011;14442;50.196;8.096;2023-04-15T03:31:32;0.30;;;0.30;;
15982;SDS011;14442;50.196;8.096;2023-04-15T03:33:59;0.33;;;0.20;;
15982;SDS011;14442;50.196;8.096;2023-04-15T03:36:25;0.50;;;0.30;;
15982;SDS011;14442;50.196;8.096;2023-04-15T03:38:57;0.20;;;0.20;;
15982;SDS011;14442;50.196;8.096;2023-04-15T03:41:23;0.40;;;0.20;;
15982;SDS011;14442;50.196;8.096;2023-04-15T03:43:51;0.70;;;0.30;;
15982;SDS011;14442;50.196;8.096;2023-04-15T03:46:18;0.33;;;0.20;;
15982;SDS011;14442;50.196;8.096;2023-04-15T03:48:45;0.33;;;0.33;;
15982;SDS011;14442;50.196;8.096;2023-04-15T03:51:12;0.30;;;0.30;;
15982;SDS011;14442;50.196;8.096;2023-04-15T03:53:39;0.87;;;0.27;;
15982;SDS011;14442;50.196;8.096;2023-04-15T03:56:05;0.30;;;0.30;;
15982;SDS011;14442;50.196;8.096;2023-04-15T03:58:32;0.20;;;0.20;;
15982;SDS011;14442;50.196;8.096;2023-04-15T04:01:00;0.27;;;0.27;;
15982;SDS011;14442;50.196;8.096;2023-04-15T04:03:27;0.30;;;0.30;;
15982;SDS011;14442;50.196;8.096;2023-04-15T04:05:53;0.47;;;0.27;;
15982;SDS011;14442;50.196;8.096;2023-04-15T04:08:20;0.67;;;0.20;;
15982;SDS011;14442;50.196;8.096;2023-04-15T04:10:47;0.40;;;0.40;;
15982;SDS011;14442;50.196;8.096;2023-04-15T04:13:13;0.20;;;0.20;;
15982;SDS011;14442;50.196;8.096;2023-04-15T04:15:40;0.30;;;0.20;;
15982;SDS011;14442;50.196;8.096;2023-04-15T04:18:08;0.60;;;0.30;;
15982;SDS011;14442;50.196;8.096;2023-04-15T04:20:35;0.20;;;0.20;;
15982;SDS011;14442;50.196;8.096;2023-04-15T04:23:02;0.30;;;0.23;;
15982;SDS011;14442;50.196;8.096;2023-04-15T04:25:28;0.30;;;0.30;;
15982;SDS011;14442;50.196;8.096;2023-04-15T04:27:55;0.57;;;0.30;;
15982;SDS011;14442;50.196;8.096;2023-04-15T04:30:22;0.20;;;0.20;;
15982;SDS011;14442;50.196;8.096;2023-04-15T04:32:48;0.20;;;0.20;;
15982;SDS011;14442;50.196;8.096;2023-04-15T04:35:17;0.30;;;0.30;;
15982;SDS011;14442;50.196;8.096;2023-04-15T04:37:43;0.57;;;0.40;;
15982;SDS011;14442;50.196;8.096;2023-04-15T04:40:10;0.50;;;0.30;;
15982;SDS011;14442;50.196;8.096;2023-04-15T04:42:38;0.30;;;0.30;;
15982;SDS011;14442;50.196;8.096;2023-04-15T04:45:05;0.30;;;0.23;;
15982;SDS011;14442;50.196;8.096;2023-04-15T04:47:32;1.60;;;0.20;;
15982;SDS011;14442;50.196;8.096;2023-04-15T04:49:59;0.30;;;0.30;;
15982;SDS011;14442;50.196;8.096;2023-04-15T04:52:27;0.20;;;0.20;;
15982;SDS011;14442;50.196;8.096;2023-04-15T04:54:54;1.20;;;0.20;;
15982;SDS011;14442;50.196;8.096;2023-04-15T04:57:20;0.23;;;0.20;;
15982;SDS011;14442;50.196;8.096;2023-04-15T04:59:47;0.27;;;0.20;;
15982;SDS011;14442;50.196;8.096;2023-04-15T05:02:14;0.20;;;0.20;;
15982;SDS011;14442;50.196;8.096;2023-04-15T05:04:40;1.40;;;0.30;;
15982;SDS011;14442;50.196;8.096;2023-04-15T05:07:07;1.50;;;0.30;;
15982;SDS011;14442;50.196;8.096;2023-04-15T05:09:36;0.47;;;0.27;;
15982;SDS011;14442;50.196;8.096;2023-04-15T05:12:02;0.30;;;0.30;;
15982;SDS011;14442;50.196;8.096;2023-04-15T05:14:29;0.20;;;0.20;;
15982;SDS011;14442;50.196;8.096;2023-04-15T05:16:57;0.30;;;0.30;;
15982;SDS011;14442;50.196;8.096;2023-04-15T05:19:23;0.50;;;0.30;;
15982;SDS011;14442;50.196;8.096;2023-04-15T05:21:50;0.30;;;0.30;;
15982;SDS011;14442;50.196;8.096;2023-04-15T05:24:17;0.20;;;0.20;;
15982;SDS011;14442;50.196;8.096;2023-04-15T05:26:45;0.20;;;0.20;;
15982;SDS011;14442;50.196;8.096;2023-04-15T05:29:11;0.63;;;0.30;;
15982;SDS011;14442;50.196;8.096;2023-04-15T05:31:38;0.27;;;0.27;;
15982;SDS011;14442;50.196;8.096;2023-04-15T05:34:05;0.30;;;0.30;;
15982;SDS011;14442;50.196;8.096;2023-04-15T05:36:32;0.40;;;0.40;;
15982;SDS011;14442;50.196;8.096;2023-04-15T05:38:58;0.50;;;0.30;;
15982;SDS011;14442;50.196;8.096;2023-04-15T05:41:25;0.30;;;0.30;;
15982;SDS011;14442;50.196;8.096;2023-04-15T05:43:53;0.93;;;0.27;;
15982;SDS011;14442;50.196;8.096;2023-04-15T05:46:20;1.47;;;0.37;;
15982;SDS011;14442;50.196;8.096;2023-04-15T05:48:47;1.27;;;0.23;;
15982;SDS011;14442;50.196;8.096;2023-04-15T05:51:14;1.47;;;0.40;;
15982;SDS011;14442;50.196;8.096;2023-04-15T05:53:40;0.47;;;0.30;;
15982;SDS011;14442;50.196;8.096;2023-04-15T05:56:07;0.50;;;0.30;;
15982;SDS011;14442;50.196;8.096;2023-04-15T05:58:34;1.23;;;0.20;;
15982;SDS011;14442;50.196;8.096;2023-04-15T06:01:02;0.60;;;0.30;;
15982;SDS011;14442;50.196;8.096;2023-04-15T06:03:29;2.33;;;0.40;;
15982;SDS011;14442;50.196;8.096;2023-04-15T06:05:56;1.70;;;0.50;;
15982;SDS011;14442;50.196;8.096;2023-04-15T06:08:23;0.30;;;0.30;;
15982;SDS011;14442;50.196;8.096;2023-04-15T06:10:49;0.60;;;0.40;;
15982;SDS011;14442;50.196;8.096;2023-04-15T06:13:16;0.67;;;0.20;;
15982;SDS011;14442;50.196;8.096;2023-04-15T06:15:43;1.00;;;0.40;;
15982;SDS011;14442;50.196;8.096;2023-04-15T06:18:11;0.57;;;0.30;;
15982;SDS011;14442;50.196;8.096;2023-04-15T06:20:37;0.40;;;0.30;;
15982;SDS011;14442;50.196;8.096;2023-04-15T06:23:04;1.17;;;0.40;;
15982;SDS011;14442;50.196;8.096;2023-04-15T06:25:31;0.83;;;0.40;;
15982;SDS011;14442;50.196;8.096;2023-04-15T06:27:57;1.63;;;0.50;;
15982;SDS011;14442;50.196;8.096;2023-04-15T06:30:24;1.60;;;0.50;;
15982;SDS011;14442;50.196;8.096;2023-04-15T06:32:51;1.60;;;0.30;;
15982;SDS011;14442;50.196;8.096;2023-04-15T06:35:19;2.13;;;0.40;;
15982;SDS011;14442;50.196;8.096;2023-04-15T06:37:47;1.07;;;0.40;;
15982;SDS011;14442;50.196;8.096;2023-04-15T06:40:13;1.20;;;0.47;;
15982;SDS011;14442;50.196;8.096;2023-04-15T06:42:40;1.20;;;0.50;;
15982;SDS011;14442;50.196;8.096;2023-04-15T06:45:07;1.30;;;0.60;;
15982;SDS011;14442;50.196;8.096;2023-04-15T06:47:34;1.73;;;0.60;;
15982;SDS011;14442;50.196;8.096;2023-04-15T06:50:01;3.23;;;0.40;;
15982;SDS011;14442;50.196;8.096;2023-04-15T06:52:29;4.17;;;0.40;;
15982;SDS011;14442;50.196;8.096;2023-04-15T06:54:56;1.10;;;0.37;;
15982;SDS011;14442;50.196;8.096;2023-04-15T06:57:23;0.83;;;0.40;;
15982;SDS011;14442;50.196;8.096;2023-04-15T06:59:50;3.20;;;0.57;;
15982;SDS011;14442;50.196;8.096;2023-04-15T07:02:18;0.50;;;0.40;;
15982;SDS011;14442;50.196;8.096;2023-04-15T07:04:45;4.27;;;0.50;;
15982;SDS011;14442;50.196;8.096;2023-04-15T07:07:12;2.40;;;0.50;;
15982;SDS011;14442;50.196;8.096;2023-04-15T07:09:42;0.67;;;0.40;;
15982;SDS011;14442;50.196;8.096;2023-04-15T07:12:09;0.87;;;0.40;;
15982;SDS011;14442;50.196;8.096;2023-04-15T07:14:36;2.33;;;0.30;;
15982;SDS011;14442;50.196;8.096;2023-04-15T07:17:02;0.50;;;0.30;;
15982;SDS011;14442;50.196;8.096;2023-04-15T07:19:29;2.97;;;0.50;;
15982;SDS011;14442;50.196;8.096;2023-04-15T07:21:56;3.73;;;0.47;;
15982;SDS011;14442;50.196;8.096;2023-04-15T07:24:22;4.67;;;0.60;;
15982;SDS011;14442;50.196;8.096;2023-04-15T07:26:52;5.17;;;1.00;;
15982;SDS011;14442;50.196;8.096;2023-04-15T07:29:18;5.07;;;0.73;;
15982;SDS011;14442;50.196;8.096;2023-04-15T07:31:45;6.93;;;0.80;;
15982;SDS011;14442;50.196;8.096;2023-04-15T07:34:12;5.73;;;0.93;;
15982;SDS011;14442;50.196;8.096;2023-04-15T07:36:38;4.70;;;0.80;;
15982;SDS011;14442;50.196;8.096;2023-04-15T07:39:05;7.87;;;1.30;;
15982;SDS011;14442;50.196;8.096;2023-04-15T07:41:32;8.93;;;1.33;;
15982;SDS011;14442;50.196;8.096;2023-04-15T07:44:00;6.47;;;1.03;;
15982;SDS011;14442;50.196;8.096;2023-04-15T07:46:27;6.43;;;1.20;;
15982;SDS011;14442;50.196;8.096;2023-04-15T07:48:53;2.47;;;0.90;;
15982;SDS011;14442;50.196;8.096;2023-04-15T07:51:20;9.37;;;1.53;;
15982;SDS011;14442;50.196;8.096;2023-04-15T07:53:47;13.33;;;0.97;;
15982;SDS011;14442;50.196;8.096;2023-04-15T07:56:15;8.47;;;1.10;;
15982;SDS011;14442;50.196;8.096;2023-04-15T07:58:42;19.77;;;2.03;;
15982;SDS011;14442;50.196;8.096;2023-04-15T08:01:10;28.43;;;3.10;;
15982;SDS011;14442;50.196;8.096;2023-04-15T08:03:37;19.77;;;1.97;;
15982;SDS011;14442;50.196;8.096;2023-04-15T08:06:04;13.97;;;1.60;;
15982;SDS011;14442;50.196;8.096;2023-04-15T08:08:31;18.83;;;2.30;;
15982;SDS011;14442;50.196;8.096;2023-04-15T08:10:57;18.20;;;2.57;;
15982;SDS011;14442;50.196;8.096;2023-04-15T08:13:25;10.67;;;3.37;;
15982;SDS011;14442;50.196;8.096;2023-04-15T08:15:52;23.90;;;3.57;;
15982;SDS011;14442;50.196;8.096;2023-04-15T08:18:36;21.47;;;3.07;;
15982;SDS011;14442;50.196;8.096;2023-04-15T08:21:02;13.47;;;2.77;;
15982;SDS011;14442;50.196;8.096;2023-04-15T08:23:29;9.93;;;2.20;;
15982;SDS011;14442;50.196;8.096;2023-04-15T08:25:56;10.97;;;2.27;;
15982;SDS011;14442;50.196;8.096;2023-04-15T08:28:23;13.37;;;2.20;;
15982;SDS011;14442;50.196;8.096;2023-04-15T08:30:51;11.70;;;1.93;;
15982;SDS011;14442;50.196;8.096;2023-04-15T08:33:18;9.30;;;1.73;;
15982;SDS011;14442;50.196;8.096;2023-04-15T08:35:46;16.37;;;1.93;;
15982;SDS011;14442;50.196;8.096;2023-04-15T08:38:13;8.07;;;1.40;;
15982;SDS011;14442;50.196;8.096;2023-04-15T08:40:40;8.43;;;1.43;;
15982;SDS011;14442;50.196;8.096;2023-04-15T08:43:09;6.80;;;1.43;;
15982;SDS011;14442;50.196;8.096;2023-04-15T08:45:38;4.37;;;1.30;;
15982;SDS011;14442;50.196;8.096;2023-04-15T08:48:05;10.00;;;1.40;;
15982;SDS011;14442;50.196;8.096;2023-04-15T08:50:34;6.77;;;1.30;;
15982;SDS011;14442;50.196;8.096;2023-04-15T08:53:03;4.33;;;1.17;;
15982;SDS011;14442;50.196;8.096;2023-04-15T08:55:31;3.83;;;1.43;;
15982;SDS011;14442;50.196;8.096;2023-04-15T08:58:00;4.40;;;0.97;;
15982;SDS011;14442;50.196;8.096;2023-04-15T09:00:27;3.83;;;0.83;;
15982;SDS011;14442;50.196;8.096;2023-04-15T09:02:54;6.67;;;1.03;;
15982;SDS011;14442;50.196;8.096;2023-04-15T09:05:21;4.50;;;0.87;;
15982;SDS011;14442;50.196;8.096;2023-04-15T09:07:49;4.60;;;1.23;;
15982;SDS011;14442;50.196;8.096;2023-04-15T09:10:17;6.63;;;1.00;;
15982;SDS011;14442;50.196;8.096;2023-04-15T09:12:43;8.63;;;1.27;;
15982;SDS011;14442;50.196;8.096;2023-04-15T09:15:10;8.63;;;0.80;;
15982;SDS011;14442;50.196;8.096;2023-04-15T09:17:40;3.30;;;0.80;;
15982;SDS011;14442;50.196;8.096;2023-04-15T09:20:08;4.27;;;0.90;;
15982;SDS011;14442;50.196;8.096;2023-04-15T09:22:37;7.33;;;1.27;;
15982;SDS011;14442;50.196;8.096;2023-04-15T09:25:08;3.83;;;0.50;;
15982;SDS011;14442;50.196;8.096;2023-04-15T09:27:52;4.87;;;0.50;;
15982;SDS011;14442;50.196;8.096;2023-04-15T09:30:20;3.57;;;0.60;;
15982;SDS011;14442;50.196;8.096;2023-04-15T09:32:48;10.77;;;1.10;;
15982;SDS011;14442;50.196;8.096;2023-04-15T09:35:16;15.57;;;1.57;;
15982;SDS011;14442;50.196;8.096;2023-04-15T09:37:43;12.67;;;1.53;;
15982;SDS011;14442;50.196;8.096;2023-04-15T09:40:10;9.90;;;1.10;;
15982;SDS011;14442;50.196;8.096;2023-04-15T09:42:46;18.30;;;1.63;;
15982;SDS011;14442;50.196;8.096;2023-04-15T09:45:20;6.43;;;1.27;;
15982;SDS011;14442;50.196;8.096;2023-04-15T09:47:48;6.67;;;1.20;;
15982;SDS011;14442;50.196;8.096;2023-04-15T09:50:17;9.50;;;1.30;;
15982;SDS011;14442;50.196;8.096;2023-04-15T09:52:44;10.30;;;1.07;;
15982;SDS011;14442;50.196;8.096;2023-04-15T09:55:12;9.27;;;1.10;;
15982;SDS011;14442;50.196;8.096;2023-04-15T09:57:39;12.87;;;1.80;;
15982;SDS011;14442;50.196;8.096;2023-04-15T10:00:10;7.27;;;1.50;;
15982;SDS011;14442;50.196;8.096;2023-04-15T10:02:37;7.93;;;1.10;;
15982;SDS011;14442;50.196;8.096;2023-04-15T10:05:05;10.73;;;1.67;;
15982;SDS011;14442;50.196;8.096;2023-04-15T10:07:35;7.77;;;1.10;;
15982;SDS011;14442;50.196;8.096;2023-04-15T10:10:03;8.60;;;1.10;;
15982;SDS011;14442;50.196;8.096;2023-04-15T10:12:31;6.83;;;1.37;;
15982;SDS011;14442;50.196;8.096;2023-04-15T10:14:59;9.60;;;1.70;;
15982;SDS011;14442;50.196;8.096;2023-04-15T10:17:31;12.30;;;1.57;;
15982;SDS011;14442;50.196;8.096;2023-04-15T10:19:59;6.37;;;1.00;;
15982;SDS011;14442;50.196;8.096;2023-04-15T10:22:26;7.10;;;1.33;;
15982;SDS011;14442;50.196;8.096;2023-04-15T10:24:54;5.37;;;0.60;;
15982;SDS011;14442;50.196;8.096;2023-04-15T10:27:21;6.63;;;1.37;;
15982;SDS011;14442;50.196;8.096;2023-04-15T10:29:49;4.37;;;0.93;;
15982;SDS011;14442;50.196;8.096;2023-04-15T10:32:16;8.23;;;1.40;;
15982;SDS011;14442;50.196;8.096;2023-04-15T10:34:45;6.93;;;1.17;;
15982;SDS011;14442;50.196;8.096;2023-04-15T10:37:18;2.33;;;0.80;;
15982;SDS011;14442;50.196;8.096;2023-04-15T10:39:46;6.67;;;0.80;;
15982;SDS011;14442;50.196;8.096;2023-04-15T10:42:14;10.27;;;0.90;;
15982;SDS011;14442;50.196;8.096;2023-04-15T10:44:41;6.13;;;0.77;;
15982;SDS011;14442;50.196;8.096;2023-04-15T10:47:10;5.67;;;0.83;;
15982;SDS011;14442;50.196;8.096;2023-04-15T10:49:41;6.70;;;1.00;;
15982;SDS011;14442;50.196;8.096;2023-04-15T10:52:11;6.00;;;0.70;;
15982;SDS011;14442;50.196;8.096;2023-04-15T10:54:40;3.20;;;0.70;;
15982;SDS011;14442;50.196;8.096;2023-04-15T10:57:08;4.80;;;1.00;;
15982;SDS011;14442;50.196;8.096;2023-04-15T11:02:32;4.37;;;0.80;;
15982;SDS011;14442;50.196;8.096;2023-04-15T11:05:04;3.90;;;0.90;;
15982;SDS011;14442;50.196;8.096;2023-04-15T11:07:39;5.30;;;0.70;;
15982;SDS011;14442;50.196;8.096;2023-04-15T11:13:18;5.90;;;0.90;;
15982;SDS011;14442;50.196;8.096;2023-04-15T11:15:47;3.40;;;0.80;;
15982;SDS011;14442;50.196;8.096;2023-04-15T11:18:16;6.70;;;0.77;;
15982;SDS011;14442;50.196;8.096;2023-04-15T11:20:44;11.37;;;0.97;;
15982;SDS011;14442;50.196;8.096;2023-04-15T11:23:14;10.33;;;1.30;;
15982;SDS011;14442;50.196;8.096;2023-04-15T11:25:41;7.70;;;0.90;;
15982;SDS011;14442;50.196;8.096;2023-04-15T11:28:08;6.47;;;0.70;;
15982;SDS011;14442;50.196;8.096;2023-04-15T11:30:36;5.47;;;0.93;;
15982;SDS011;14442;50.196;8.096;2023-04-15T11:33:06;6.47;;;1.00;;
15982;SDS011;14442;50.196;8.096;2023-04-15T11:35:33;13.63;;;1.10;;
15982;SDS011;14442;50.196;8.096;2023-04-15T11:38:01;10.20;;;1.17;;
15982;SDS011;14442;50.196;8.096;2023-04-15T11:40:30;8.80;;;1.00;;
15982;SDS011;14442;50.196;8.096;2023-04-15T11:43:02;6.37;;;1.30;;
15982;SDS011;14442;50.196;8.096;2023-04-15T11:45:30;8.63;;;0.80;;
15982;SDS011;14442;50.196;8.096;2023-04-15T11:48:03;5.33;;;1.33;;
15982;SDS011;14442;50.196;8.096;2023-04-15T11:50:31;6.07;;;0.70;;
15982;SDS011;14442;50.196;8.096;2023-04-15T11:52:59;9.47;;;1.43;;
15982;SDS011;14442;50.196;8.096;2023-04-15T11:55:27;14.50;;;1.97;;
15982;SDS011;14442;50.196;8.096;2023-04-15T12:00:38;20.70;;;2.27;;
15982;SDS011;14442;50.196;8.096;2023-04-15T12:09:02;22.60;;;2.67;;
15982;SDS011;14442;50.196;8.096;2023-04-15T12:11:37;19.47;;;2.23;;
15982;SDS011;14442;50.196;8.096;2023-04-15T12:14:08;20.80;;;1.93;;
15982;SDS011;14442;50.196;8.096;2023-04-15T12:16:37;23.37;;;2.30;;
15982;SDS011;14442;50.196;8.096;2023-04-15T12:19:05;11.63;;;2.00;;
15982;SDS011;14442;50.196;8.096;2023-04-15T12:21:35;12.97;;;1.93;;
15982;SDS011;14442;50.196;8.096;2023-04-15T12:24:04;17.40;;;1.60;;
15982;SDS011;14442;50.196;8.096;2023-04-15T12:26:33;13.83;;;1.50;;
15982;SDS011;14442;50.196;8.096;2023-04-15T12:29:02;8.03;;;1.23;;
15982;SDS011;14442;50.196;8.096;2023-04-15T12:31:32;12.43;;;1.63;;
15982;SDS011;14442;50.196;8.096;2023-04-15T12:33:59;9.73;;;1.37;;
15982;SDS011;14442;50.196;8.096;2023-04-15T12:36:26;9.23;;;1.40;;
15982;SDS011;14442;50.196;8.096;2023-04-15T12:38:54;12.13;;;1.40;;
15982;SDS011;14442;50.196;8.096;2023-04-15T12:41:21;6.60;;;1.33;;
15982;SDS011;14442;50.196;8.096;2023-04-15T12:43:48;9.20;;;1.17;;
15982;SDS011;14442;50.196;8.096;2023-04-15T12:46:15;7.27;;;1.03;;
15982;SDS011;14442;50.196;8.096;2023-04-15T12:48:44;7.73;;;1.60;;
15982;SDS011;14442;50.196;8.096;2023-04-15T12:51:10;6.17;;;0.77;;
15982;SDS011;14442;50.196;8.096;2023-04-15T12:53:37;5.00;;;0.77;;
15982;SDS011;14442;50.196;8.096;2023-04-15T12:56:04;6.37;;;0.90;;
15982;SDS011;14442;50.196;8.096;2023-04-15T12:58:32;4.30;;;0.60;;
15982;SDS011;14442;50.196;8.096;2023-04-15T13:00:59;5.03;;;0.60;;
15982;SDS011;14442;50.196;8.096;2023-04-15T13:03:26;3.80;;;0.47;;
15982;SDS011;14442;50.196;8.096;2023-04-15T13:05:54;6.80;;;0.87;;
15982;SDS011;14442;50.196;8.096;2023-04-15T13:08:21;2.60;;;0.40;;
15982;SDS011;14442;50.196;8.096;2023-04-15T13:10:48;1.77;;;0.30;;
15982;SDS011;14442;50.196;8.096;2023-04-15T13:13:15;4.70;;;0.47;;
15982;SDS011;14442;50.196;8.096;2023-04-15T13:15:41;3.13;;;0.60;;
15982;SDS011;14442;50.196;8.096;2023-04-15T13:18:09;3.17;;;0.40;;
15982;SDS011;14442;50.196;8.096;2023-04-15T13:20:36;7.27;;;0.30;;
15982;SDS011;14442;50.196;8.096;2023-04-15T13:23:04;1.20;;;0.50;;
15982;SDS011;14442;50.196;8.096;2023-04-15T13:25:31;2.60;;;0.47;;
15982;SDS011;14442;50.196;8.096;2023-04-15T13:27:57;2.40;;;0.60;;
15982;SDS011;14442;50.196;8.096;2023-04-15T13:30:25;3.87;;;0.40;;
15982;SDS011;14442;50.196;8.096;2023-04-15T13:32:52;2.80;;;0.50;;
15982;SDS011;14442;50.196;8.096;2023-04-15T13:35:20;2.07;;;0.60;;
15982;SDS011;14442;50.196;8.096;2023-04-15T13:37:46;3.30;;;0.33;;
15982;SDS011;14442;50.196;8.096;2023-04-15T13:40:14;3.97;;;0.30;;
15982;SDS011;14442;50.196;8.096;2023-04-15T13:42:41;3.60;;;0.30;;
15982;SDS011;14442;50.196;8.096;2023-04-15T13:45:08;0.83;;;0.27;;
15982;SDS011;14442;50.196;8.096;2023-04-15T13:47:35;3.53;;;0.30;;
15982;SDS011;14442;50.196;8.096;2023-04-15T13:50:02;1.87;;;0.40;;
15982;SDS011;14442;50.196;8.096;2023-04-15T13:52:28;0.50;;;0.13;;
15982;SDS011;14442;50.196;8.096;2023-04-15T13:54:55;0.47;;;0.17;;
15982;SDS011;14442;50.196;8.096;2023-04-15T13:57:23;1.77;;;0.20;;
15982;SDS011;14442;50.196;8.096;2023-04-15T13:59:50;2.73;;;0.30;;
15982;SDS011;14442;50.196;8.096;2023-04-15T14:02:19;1.20;;;0.20;;
15982;SDS011;14442;50.196;8.096;2023-04-15T14:04:47;0.20;;;0.10;;
15982;SDS011;14442;50.196;8.096;2023-04-15T14:07:14;1.37;;;0.13;;
15982;SDS011;14442;50.196;8.096;2023-04-15T14:09:40;1.20;;;0.20;;
15982;SDS011;14442;50.196;8.096;2023-04-15T14:12:08;0.40;;;0.20;;
15982;SDS011;14442;50.196;8.096;2023-04-15T14:14:36;0.20;;;0.10;;
15982;SDS011;14442;50.196;8.096;2023-04-15T14:17:03;0.40;;;0.20;;
15982;SDS011;14442;50.196;8.096;2023-04-15T14:19:30;0.80;;;0.20;;
15982;SDS011;14442;50.196;8.096;2023-04-15T14:21:58;0.97;;;0.13;;
15982;SDS011;14442;50.196;8.096;2023-04-15T14:24:24;1.27;;;0.30;;
15982;SDS011;14442;50.196;8.096;2023-04-15T14:26:51;0.43;;;0.10;;
15982;SDS011;14442;50.196;8.096;2023-04-15T14:29:18;0.53;;;0.20;;
15982;SDS011;14442;50.196;8.096;2023-04-15T14:31:46;1.03;;;0.30;;
15982;SDS011;14442;50.196;8.096;2023-04-15T14:34:13;0.27;;;0.10;;
15982;SDS011;14442;50.196;8.096;2023-04-15T14:36:41;0.40;;;0.20;;
15982;SDS011;14442;50.196;8.096;2023-04-15T14:39:08;0.23;;;0.23;;
15982;SDS011;14442;50.196;8.096;2023-04-15T14:41:35;0.27;;;0.20;;
15982;SDS011;14442;50.196;8.096;2023-04-15T14:44:02;0.30;;;0.03;;
15982;SDS011;14442;50.196;8.096;2023-04-15T14:46:29;0.10;;;0.10;;
15982;SDS011;14442;50.196;8.096;2023-04-15T14:48:57;0.73;;;0.10;;
15982;SDS011;14442;50.196;8.096;2023-04-15T14:51:24;0.20;;;0.20;;
15982;SDS011;14442;50.196;8.096;2023-04-15T14:53:50;0.20;;;0.20;;
15982;SDS011;14442;50.196;8.096;2023-04-15T14:56:17;0.60;;;0.20;;
15982;SDS011;14442;50.196;8.096;2023-04-15T14:58:44;0.53;;;0.10;;
15982;SDS011;14442;50.196;8.096;2023-04-15T15:01:11;1.13;;;0.10;;